createdAt,value
2019-03-08T00:00:02.543Z,8.6
2019-03-08T00:05:02.731Z,8.6
2019-03-08T00:10:02.779Z,8.5
2019-03-08T00:15:03.218Z,8.5
2019-03-08T00:20:02.486Z,8.5
2019-03-08T00:25:02.705Z,8.5
2019-03-08T00:30:02.903Z,8.5
2019-03-08T00:35:05.661Z,8.5
2019-03-08T00:40:02.444Z,8.4
2019-03-08T00:45:02.577Z,8.5
2019-03-08T00:50:02.912Z,8.4
2019-03-08T00:55:02.593Z,8.4
2019-03-08T01:00:02.707Z,8.3
2019-03-08T01:05:02.370Z,8.3
2019-03-08T01:10:03.024Z,8.2
2019-03-08T01:15:02.600Z,8.1
2019-03-08T01:20:03.134Z,8.1
2019-03-08T01:25:03.316Z,8.1
2019-03-08T01:30:02.827Z,8.1
2019-03-08T01:35:02.883Z,8.1
2019-03-08T01:40:02.464Z,8
2019-03-08T01:45:07.614Z,8
2019-03-08T01:50:02.806Z,7.9
2019-03-08T01:55:03.014Z,7.9
2019-03-08T02:00:03.240Z,8
2019-03-08T02:05:02.406Z,7.9
2019-03-08T02:10:03.165Z,7.9
2019-03-08T02:15:02.291Z,7.9
2019-03-08T02:20:02.543Z,7.9
2019-03-08T02:25:02.735Z,7.9
2019-03-08T02:30:03.004Z,7.8
2019-03-08T02:35:03.120Z,7.8
2019-03-08T02:40:05.286Z,7.9
2019-03-08T02:45:02.927Z,7.8
2019-03-08T02:50:02.437Z,7.9
2019-03-08T02:55:02.643Z,7.9
2019-03-08T03:00:05.384Z,7.9
2019-03-08T03:05:02.899Z,7.9
2019-03-08T03:10:02.461Z,8
2019-03-08T03:15:02.622Z,8
2019-03-08T03:20:02.826Z,8
2019-03-08T03:25:05.558Z,8.1
2019-03-08T03:30:02.662Z,8.1
2019-03-08T03:35:03.059Z,8.1
2019-03-08T03:40:05.293Z,8.1
2019-03-08T03:45:02.935Z,8.1
2019-03-08T03:50:03.100Z,8.2
2019-03-08T03:55:03.190Z,8.3
2019-03-08T04:00:02.303Z,8.3
2019-03-08T04:05:02.487Z,8.4
2019-03-08T04:10:02.432Z,8.5
2019-03-08T04:15:02.596Z,8.5
2019-03-08T04:20:02.818Z,8.5
2019-03-08T04:25:02.985Z,8.5
2019-03-08T04:30:03.031Z,8.5
2019-03-08T04:35:03.219Z,8.5
2019-03-08T04:40:02.804Z,8.5
2019-03-08T04:45:03.026Z,8.5
2019-03-08T04:50:02.755Z,8.6
2019-03-08T04:55:02.952Z,8.7
2019-03-08T05:00:03.051Z,8.7
2019-03-08T05:05:03.256Z,8.6
2019-03-08T05:10:02.814Z,8.7
2019-03-08T05:15:03.014Z,8.7
2019-03-08T05:20:03.254Z,8.7
2019-03-08T05:25:02.416Z,8.8
2019-03-08T05:30:02.963Z,8.8
2019-03-08T05:35:03.160Z,8.8
2019-03-08T05:40:05.339Z,8.9
2019-03-08T05:45:02.951Z,8.9
2019-03-08T05:50:03.151Z,8.9
2019-03-08T05:55:03.336Z,8.9
2019-03-08T06:00:02.649Z,8.9
2019-03-08T06:05:02.812Z,8.9
2019-03-08T06:10:02.785Z,8.9
2019-03-08T06:15:02.478Z,8.9
2019-03-08T06:20:02.622Z,9
2019-03-08T06:25:05.861Z,9
2019-03-08T06:30:02.919Z,9
2019-03-08T06:35:03.154Z,9
2019-03-08T06:40:02.743Z,9.1
2019-03-08T06:45:02.944Z,9
2019-03-08T06:50:03.155Z,9
2019-03-08T06:55:03.303Z,9
2019-03-08T07:00:04.905Z,9
2019-03-08T07:05:05.050Z,9
2019-03-08T07:10:05.245Z,9
2019-03-08T07:15:02.921Z,9
2019-03-08T07:20:03.279Z,9
2019-03-08T07:25:02.444Z,9
2019-03-08T07:30:02.612Z,9.1
2019-03-08T07:35:03.069Z,9.1
2019-03-08T07:40:02.646Z,9.2
2019-03-08T07:45:03.100Z,9.2
2019-03-08T07:50:02.557Z,9.3
2019-03-08T07:55:02.724Z,9.3
2019-03-08T08:00:03.140Z,9.3
2019-03-08T08:05:02.346Z,9.4
2019-03-08T08:10:03.036Z,9.4
2019-03-08T08:15:03.254Z,9.4
2019-03-08T08:20:02.475Z,9.4
2019-03-08T08:25:05.220Z,9.3
2019-03-08T08:30:05.035Z,9.3
2019-03-08T08:35:02.608Z,9.3
2019-03-08T08:40:02.779Z,9.2
2019-03-08T08:45:02.954Z,9.2
2019-03-08T08:50:03.132Z,9.3
2019-03-08T08:55:03.314Z,9.2
2019-03-08T09:00:02.518Z,9.1
2019-03-08T09:05:05.283Z,9.1
2019-03-08T09:10:03.021Z,9.1
2019-03-08T09:15:03.221Z,9.1
2019-03-08T09:20:02.932Z,9.1
2019-03-08T09:25:03.111Z,9
2019-03-08T09:30:03.295Z,8.9
2019-03-08T09:35:02.425Z,8.8
2019-03-08T09:40:03.073Z,8.7
2019-03-08T09:45:03.277Z,8.8
2019-03-08T09:50:02.441Z,8.7
2019-03-08T09:55:02.643Z,8.7
2019-03-08T10:00:02.318Z,8.7
2019-03-08T10:05:02.478Z,8.8
2019-03-08T10:10:05.705Z,8.1
2019-03-08T10:15:03.291Z,8.1
2019-03-08T10:20:02.523Z,7.9
2019-03-08T10:25:02.694Z,7.8
2019-03-08T10:30:02.876Z,7.6
2019-03-08T10:35:02.899Z,7.3
2019-03-08T10:40:03.058Z,7.2
2019-03-08T10:45:03.247Z,7.2
2019-03-08T10:50:02.424Z,7.3
2019-03-08T10:55:02.619Z,7.5
2019-03-08T11:00:05.386Z,7.7
2019-03-08T11:05:03.065Z,7.7
2019-03-08T11:10:07.708Z,8
2019-03-08T11:15:02.825Z,8
2019-03-08T11:20:02.587Z,8.1
2019-03-08T11:25:07.933Z,8.2
2019-03-08T11:30:02.948Z,8.2
2019-03-08T11:35:02.747Z,8.1
2019-03-08T11:40:02.456Z,8.1
2019-03-08T11:45:02.576Z,8.1
2019-03-08T11:50:02.812Z,8.1
2019-03-08T11:55:03.000Z,8.2
2019-03-08T12:00:02.322Z,8.3
2019-03-08T12:05:02.484Z,8.4
2019-03-08T12:10:03.089Z,8.4
2019-03-08T12:15:03.294Z,8.3
2019-03-08T12:20:02.526Z,8.2
2019-03-08T12:25:05.199Z,8.3
2019-03-08T12:30:04.160Z,8.3
2019-03-08T12:35:02.766Z,8.2
2019-03-08T12:40:02.449Z,8.2
2019-03-08T12:45:02.554Z,8.5
2019-03-08T12:50:02.661Z,8.8
2019-03-08T12:55:02.462Z,9.3
2019-03-08T13:00:05.118Z,10.4
2019-03-08T13:05:02.371Z,10.4
2019-03-08T13:10:05.583Z,12.2
2019-03-08T13:15:03.298Z,12.2
2019-03-08T13:20:02.619Z,11.6
2019-03-08T13:25:02.757Z,11.3
2019-03-08T13:30:03.086Z,10.6
2019-03-08T13:35:05.103Z,9.9
2019-03-08T13:40:02.746Z,9.9
2019-03-08T13:45:02.501Z,9.4
2019-03-08T13:50:02.613Z,9.4
2019-03-08T13:55:05.623Z,9.9
2019-03-08T14:00:05.720Z,11.2
2019-03-08T14:05:04.882Z,12.1
2019-03-08T14:10:02.749Z,12.1
2019-03-08T14:15:08.329Z,12.3
2019-03-08T14:20:02.576Z,12.3
2019-03-08T14:25:03.109Z,13.7
2019-03-08T14:30:02.355Z,13.5
2019-03-08T14:35:02.543Z,12.8
2019-03-08T14:40:03.215Z,12.8
2019-03-08T14:45:03.320Z,13.6
2019-03-08T14:50:02.391Z,14.2
2019-03-08T14:55:02.774Z,13.5
2019-03-08T15:00:02.933Z,13.8
2019-03-08T15:05:10.808Z,12.9
2019-03-08T15:10:05.922Z,12.1
2019-03-08T15:15:03.053Z,11.9
2019-03-08T15:20:03.282Z,11.8
2019-03-08T15:25:02.985Z,11.7
2019-03-08T15:30:03.285Z,11.5
2019-03-08T15:35:03.154Z,11.4
2019-03-08T15:40:03.177Z,11.4
2019-03-08T15:45:05.675Z,11.3
2019-03-08T15:50:04.451Z,11.2
2019-03-08T15:55:03.031Z,11.2
2019-03-08T16:00:03.130Z,10.9
2019-03-08T16:05:03.850Z,10.6
2019-03-08T16:10:02.704Z,10.4
2019-03-08T16:15:04.820Z,10.1
2019-03-08T16:20:03.937Z,10
2019-03-08T16:25:06.432Z,9.9
2019-03-08T16:30:08.607Z,9.6
2019-03-08T16:35:02.499Z,9.5
2019-03-08T16:40:05.210Z,9.1
2019-03-08T16:45:02.875Z,9.1
2019-03-08T16:50:03.080Z,8.9
2019-03-08T16:55:02.772Z,8.8
2019-03-08T17:00:02.942Z,8.7
2019-03-08T17:05:02.600Z,8.6
2019-03-08T17:10:03.015Z,8.5
2019-03-08T17:15:08.260Z,8.4
2019-03-08T17:20:02.440Z,8.4
2019-03-08T17:25:02.617Z,8.4
2019-03-08T17:30:02.338Z,8.3
2019-03-08T17:35:02.459Z,8.2
2019-03-08T17:40:02.422Z,8.1
2019-03-08T17:45:02.531Z,8.1
2019-03-08T17:50:02.593Z,8
2019-03-08T17:55:02.734Z,7.9
2019-03-08T18:00:02.909Z,7.9
2019-03-08T18:05:02.474Z,7.8
2019-03-08T18:10:03.072Z,7.8
2019-03-08T18:15:02.323Z,7.7
2019-03-08T18:20:02.529Z,7.6
2019-03-08T18:25:02.425Z,7.5
2019-03-08T18:30:02.839Z,7.4
2019-03-08T18:35:05.394Z,7.2
2019-03-08T18:40:05.719Z,7
2019-03-08T18:45:28.512Z,7
2019-03-08T18:50:20.291Z,7
2019-03-08T18:55:25.409Z,7
2019-03-08T19:00:04.966Z,6.9
2019-03-08T19:05:03.131Z,6.9
2019-03-08T19:10:05.250Z,6.7
2019-03-08T19:15:07.868Z,6.7
2019-03-08T19:20:05.558Z,6.6
2019-03-08T19:25:23.211Z,6.6
2019-03-08T19:30:02.525Z,6.6
2019-03-08T19:35:05.116Z,6.6
2019-03-08T19:40:02.618Z,6.6
2019-03-08T19:45:25.429Z,6.5
2019-03-08T19:50:22.753Z,6.4
2019-03-08T19:55:05.014Z,6.4
2019-03-08T20:00:18.306Z,6.3
2019-03-08T20:05:10.132Z,6.3
2019-03-08T20:10:20.379Z,6.3
2019-03-08T20:20:15.528Z,6.3
2019-03-08T20:30:30.278Z,6.3
2019-03-08T20:35:02.357Z,6.3
2019-03-08T20:40:02.935Z,6.3
2019-03-08T20:45:02.953Z,6.2
2019-03-08T20:50:02.998Z,6.2
2019-03-08T20:55:08.072Z,6.1
2019-03-08T21:00:05.723Z,6.1
2019-03-08T21:05:33.090Z,6.1
2019-03-08T21:10:22.865Z,6.1
2019-03-08T21:15:03.034Z,6.1
2019-03-08T21:20:03.255Z,6
2019-03-08T21:25:03.073Z,6.1
2019-03-08T21:30:02.644Z,6
2019-03-08T21:40:03.135Z,5.9
2019-03-08T21:45:10.318Z,5.9
2019-03-08T21:50:04.922Z,6
2019-03-08T21:55:02.621Z,5.9
2019-03-08T22:00:20.490Z,5.9
2019-03-08T22:05:07.797Z,6
2019-03-08T22:10:11.050Z,6
2019-03-08T22:15:02.351Z,6
2019-03-08T22:20:04.999Z,6
2019-03-08T22:25:20.217Z,5.9
2019-03-08T22:30:02.743Z,5.9
2019-03-08T22:35:05.478Z,5.9
2019-03-08T22:40:08.009Z,5.9
2019-03-08T22:45:13.291Z,6
2019-03-08T22:50:23.503Z,6
2019-03-08T22:55:03.247Z,6
2019-03-08T23:00:03.311Z,6
2019-03-08T23:05:28.006Z,6.1
2019-03-08T23:10:05.461Z,6.2
2019-03-08T23:15:02.919Z,6.2
2019-03-08T23:20:02.521Z,6.2
2019-03-08T23:25:02.549Z,6.2
2019-03-08T23:30:10.150Z,6.3
2019-03-08T23:35:10.600Z,6.3
2019-03-08T23:40:08.252Z,6.3
2019-03-08T23:45:17.606Z,6.3
2019-03-08T23:50:10.323Z,6.2
2019-03-08T23:55:13.007Z,6.3
